sensor_id;sensor_type;location;lat;lon;timestamp;P1;durP1;ratioP1;P2;durP2;ratioP2
71343;SDS011;59146;43.850;25.948;2023-03-26T00:01:25;12.80;;;6.32;;
71343;SDS011;59146;43.850;25.948;2023-03-26T00:03:54;12.80;;;6.90;;
71343;SDS011;59146;43.850;25.948;2023-03-26T00:06:22;8.93;;;6.32;;
71343;SDS011;59146;43.850;25.948;2023-03-26T00:08:50;10.27;;;6.55;;
71343;SDS011;59146;43.850;25.948;2023-03-26T00:11:17;10.35;;;7.18;;
71343;SDS011;59146;43.850;25.948;2023-03-26T00:13:45;8.70;;;5.97;;
71343;SDS011;59146;43.850;25.948;2023-03-26T00:16:11;9.32;;;7.22;;
71343;SDS011;59146;43.850;25.948;2023-03-26T00:18:37;7.97;;;5.95;;
71343;SDS011;59146;43.850;25.948;2023-03-26T00:21:06;8.68;;;5.07;;
71343;SDS011;59146;43.850;25.948;2023-03-26T00:23:38;7.53;;;5.00;;
71343;SDS011;59146;43.850;25.948;2023-03-26T00:26:04;8.45;;;5.60;;
71343;SDS011;59146;43.850;25.948;2023-03-26T00:28:34;8.00;;;5.43;;
71343;SDS011;59146;43.850;25.948;2023-03-26T00:31:02;9.80;;;5.43;;
71343;SDS011;59146;43.850;25.948;2023-03-26T00:33:29;7.32;;;4.75;;
71343;SDS011;59146;43.850;25.948;2023-03-26T00:35:56;7.50;;;5.07;;
71343;SDS011;59146;43.850;25.948;2023-03-26T00:38:23;9.25;;;5.47;;
71343;SDS011;59146;43.850;25.948;2023-03-26T00:40:50;14.07;;;4.90;;
71343;SDS011;59146;43.850;25.948;2023-03-26T00:43:19;5.68;;;4.30;;
71343;SDS011;59146;43.850;25.948;2023-03-26T00:45:49;7.88;;;4.00;;
71343;SDS011;59146;43.850;25.948;2023-03-26T00:48:18;6.13;;;4.38;;
71343;SDS011;59146;43.850;25.948;2023-03-26T00:50:45;6.70;;;4.55;;
71343;SDS011;59146;43.850;25.948;2023-03-26T00:53:12;5.13;;;4.18;;
71343;SDS011;59146;43.850;25.948;2023-03-26T00:55:41;6.43;;;4.78;;
71343;SDS011;59146;43.850;25.948;2023-03-26T00:58:08;9.82;;;5.20;;
71343;SDS011;59146;43.850;25.948;2023-03-26T01:00:47;7.57;;;5.35;;
71343;SDS011;59146;43.850;25.948;2023-03-26T01:03:15;6.97;;;5.07;;
71343;SDS011;59146;43.850;25.948;2023-03-26T01:05:49;9.00;;;4.90;;
71343;SDS011;59146;43.850;25.948;2023-03-26T01:10:46;5.90;;;4.78;;
71343;SDS011;59146;43.850;25.948;2023-03-26T01:13:20;5.88;;;4.43;;
71343;SDS011;59146;43.850;25.948;2023-03-26T01:15:47;5.05;;;3.53;;
71343;SDS011;59146;43.850;25.948;2023-03-26T01:18:14;5.10;;;3.92;;
71343;SDS011;59146;43.850;25.948;2023-03-26T01:20:43;5.47;;;3.40;;
71343;SDS011;59146;43.850;25.948;2023-03-26T01:23:14;6.63;;;2.58;;
71343;SDS011;59146;43.850;25.948;2023-03-26T01:25:47;3.45;;;2.90;;
71343;SDS011;59146;43.850;25.948;2023-03-26T01:28:20;6.43;;;3.17;;
71343;SDS011;59146;43.850;25.948;2023-03-26T01:31:08;3.25;;;2.35;;
71343;SDS011;59146;43.850;25.948;2023-03-26T01:33:48;3.45;;;2.20;;
71343;SDS011;59146;43.850;25.948;2023-03-26T01:36:22;5.00;;;2.47;;
71343;SDS011;59146;43.850;25.948;2023-03-26T01:42:01;5.32;;;2.40;;
71343;SDS011;59146;43.850;25.948;2023-03-26T01:44:46;6.00;;;2.20;;
71343;SDS011;59146;43.850;25.948;2023-03-26T01:47:14;2.45;;;2.25;;
71343;SDS011;59146;43.850;25.948;2023-03-26T01:49:41;2.60;;;2.22;;
71343;SDS011;59146;43.850;25.948;2023-03-26T01:52:20;2.65;;;2.20;;
71343;SDS011;59146;43.850;25.948;2023-03-26T01:54:49;2.30;;;2.10;;
71343;SDS011;59146;43.850;25.948;2023-03-26T01:57:37;5.70;;;3.25;;
71343;SDS011;59146;43.850;25.948;2023-03-26T02:05:47;8.30;;;2.67;;
71343;SDS011;59146;43.850;25.948;2023-03-26T02:08:31;4.78;;;2.63;;
71343;SDS011;59146;43.850;25.948;2023-03-26T02:11:02;3.10;;;2.75;;
71343;SDS011;59146;43.850;25.948;2023-03-26T02:13:35;5.75;;;3.00;;
71343;SDS011;59146;43.850;25.948;2023-03-26T02:16:02;4.32;;;3.22;;
71343;SDS011;59146;43.850;25.948;2023-03-26T02:18:30;4.53;;;2.97;;
71343;SDS011;59146;43.850;25.948;2023-03-26T02:21:13;6.38;;;3.03;;
71343;SDS011;59146;43.850;25.948;2023-03-26T02:26:10;7.03;;;3.47;;
71343;SDS011;59146;43.850;25.948;2023-03-26T02:28:37;6.55;;;3.38;;
71343;SDS011;59146;43.850;25.948;2023-03-26T02:31:03;4.28;;;3.72;;
71343;SDS011;59146;43.850;25.948;2023-03-26T02:33:29;4.70;;;3.88;;
71343;SDS011;59146;43.850;25.948;2023-03-26T02:35:56;4.60;;;3.33;;
71343;SDS011;59146;43.850;25.948;2023-03-26T02:38:27;11.80;;;3.92;;
71343;SDS011;59146;43.850;25.948;2023-03-26T02:40:54;6.75;;;4.50;;
71343;SDS011;59146;43.850;25.948;2023-03-26T02:43:20;4.75;;;3.97;;
71343;SDS011;59146;43.850;25.948;2023-03-26T02:45:46;6.57;;;4.55;;
71343;SDS011;59146;43.850;25.948;2023-03-26T02:48:11;5.45;;;4.72;;
71343;SDS011;59146;43.850;25.948;2023-03-26T02:50:37;5.70;;;4.55;;
71343;SDS011;59146;43.850;25.948;2023-03-26T02:53:03;6.07;;;4.43;;
71343;SDS011;59146;43.850;25.948;2023-03-26T02:55:28;4.75;;;4.05;;
71343;SDS011;59146;43.850;25.948;2023-03-26T02:57:54;7.43;;;5.07;;
71343;SDS011;59146;43.850;25.948;2023-03-26T03:00:20;7.32;;;4.70;;
71343;SDS011;59146;43.850;25.948;2023-03-26T03:02:49;4.43;;;4.00;;
71343;SDS011;59146;43.850;25.948;2023-03-26T03:05:16;6.22;;;4.57;;
71343;SDS011;59146;43.850;25.948;2023-03-26T03:07:43;5.03;;;4.45;;
71343;SDS011;59146;43.850;25.948;2023-03-26T03:10:10;5.65;;;4.22;;
71343;SDS011;59146;43.850;25.948;2023-03-26T03:12:38;4.35;;;3.95;;
71343;SDS011;59146;43.850;25.948;2023-03-26T03:15:04;4.63;;;4.15;;
71343;SDS011;59146;43.850;25.948;2023-03-26T03:17:30;9.02;;;4.07;;
71343;SDS011;59146;43.850;25.948;2023-03-26T03:19:55;13.18;;;3.97;;
71343;SDS011;59146;43.850;25.948;2023-03-26T03:22:21;4.03;;;3.55;;
71343;SDS011;59146;43.850;25.948;2023-03-26T03:24:46;7.07;;;3.50;;
71343;SDS011;59146;43.850;25.948;2023-03-26T03:27:12;3.95;;;3.40;;
71343;SDS011;59146;43.850;25.948;2023-03-26T03:29:37;5.78;;;3.88;;
71343;SDS011;59146;43.850;25.948;2023-03-26T03:32:03;5.75;;;3.55;;
71343;SDS011;59146;43.850;25.948;2023-03-26T03:34:29;4.47;;;3.50;;
71343;SDS011;59146;43.850;25.948;2023-03-26T03:36:54;5.25;;;3.97;;
71343;SDS011;59146;43.850;25.948;2023-03-26T03:39:20;4.15;;;3.75;;
71343;SDS011;59146;43.850;25.948;2023-03-26T03:41:45;6.43;;;4.30;;
71343;SDS011;59146;43.850;25.948;2023-03-26T03:44:11;7.25;;;4.03;;
71343;SDS011;59146;43.850;25.948;2023-03-26T03:46:36;7.03;;;3.80;;
71343;SDS011;59146;43.850;25.948;2023-03-26T03:49:02;4.70;;;4.03;;
71343;SDS011;59146;43.850;25.948;2023-03-26T03:51:27;6.13;;;4.15;;
71343;SDS011;59146;43.850;25.948;2023-03-26T03:53:53;5.75;;;3.97;;
71343;SDS011;59146;43.850;25.948;2023-03-26T03:56:20;6.90;;;4.38;;
71343;SDS011;59146;43.850;25.948;2023-03-26T03:58:48;9.30;;;4.38;;
71343;SDS011;59146;43.850;25.948;2023-03-26T04:01:14;4.90;;;4.05;;
71343;SDS011;59146;43.850;25.948;2023-03-26T04:03:41;5.50;;;4.25;;
71343;SDS011;59146;43.850;25.948;2023-03-26T04:06:10;4.10;;;3.70;;
71343;SDS011;59146;43.850;25.948;2023-03-26T04:08:35;7.82;;;3.47;;
71343;SDS011;59146;43.850;25.948;2023-03-26T04:11:01;5.10;;;4.05;;
71343;SDS011;59146;43.850;25.948;2023-03-26T04:13:27;8.80;;;4.05;;
71343;SDS011;59146;43.850;25.948;2023-03-26T04:15:52;4.30;;;3.90;;
71343;SDS011;59146;43.850;25.948;2023-03-26T04:18:18;5.20;;;3.30;;
71343;SDS011;59146;43.850;25.948;2023-03-26T04:20:44;5.90;;;3.38;;
71343;SDS011;59146;43.850;25.948;2023-03-26T04:23:17;6.72;;;3.78;;
71343;SDS011;59146;43.850;25.948;2023-03-26T04:25:44;7.32;;;4.13;;
71343;SDS011;59146;43.850;25.948;2023-03-26T04:28:32;8.68;;;4.13;;
71343;SDS011;59146;43.850;25.948;2023-03-26T04:31:00;7.32;;;4.03;;
71343;SDS011;59146;43.850;25.948;2023-03-26T04:33:31;4.30;;;3.50;;
71343;SDS011;59146;43.850;25.948;2023-03-26T04:35:58;5.38;;;3.72;;
71343;SDS011;59146;43.850;25.948;2023-03-26T04:38:28;8.38;;;3.40;;
71343;SDS011;59146;43.850;25.948;2023-03-26T04:40:57;3.97;;;3.53;;
71343;SDS011;59146;43.850;25.948;2023-03-26T04:43:27;3.65;;;3.13;;
71343;SDS011;59146;43.850;25.948;2023-03-26T04:45:54;4.40;;;3.72;;
71343;SDS011;59146;43.850;25.948;2023-03-26T04:48:20;5.45;;;4.40;;
71343;SDS011;59146;43.850;25.948;2023-03-26T04:50:46;7.57;;;3.42;;
71343;SDS011;59146;43.850;25.948;2023-03-26T04:53:16;8.02;;;3.50;;
71343;SDS011;59146;43.850;25.948;2023-03-26T04:55:45;5.32;;;3.63;;
71343;SDS011;59146;43.850;25.948;2023-03-26T04:58:21;7.50;;;3.33;;
71343;SDS011;59146;43.850;25.948;2023-03-26T05:00:54;4.10;;;3.38;;
71343;SDS011;59146;43.850;25.948;2023-03-26T05:03:19;5.53;;;3.75;;
71343;SDS011;59146;43.850;25.948;2023-03-26T05:05:44;7.45;;;3.78;;
71343;SDS011;59146;43.850;25.948;2023-03-26T05:08:10;9.35;;;4.00;;
71343;SDS011;59146;43.850;25.948;2023-03-26T05:10:35;9.35;;;3.65;;
71343;SDS011;59146;43.850;25.948;2023-03-26T05:13:01;6.53;;;3.95;;
71343;SDS011;59146;43.850;25.948;2023-03-26T05:15:26;6.18;;;4.28;;
71343;SDS011;59146;43.850;25.948;2023-03-26T05:17:52;7.97;;;4.35;;
71343;SDS011;59146;43.850;25.948;2023-03-26T05:20:26;6.85;;;4.72;;
71343;SDS011;59146;43.850;25.948;2023-03-26T05:22:54;9.30;;;4.70;;
71343;SDS011;59146;43.850;25.948;2023-03-26T05:25:20;6.95;;;4.40;;
71343;SDS011;59146;43.850;25.948;2023-03-26T05:27:46;5.07;;;4.10;;
71343;SDS011;59146;43.850;25.948;2023-03-26T05:30:16;6.25;;;4.43;;
71343;SDS011;59146;43.850;25.948;2023-03-26T05:35:08;9.05;;;4.70;;
71343;SDS011;59146;43.850;25.948;2023-03-26T05:37:34;8.82;;;4.72;;
71343;SDS011;59146;43.850;25.948;2023-03-26T05:40:01;6.07;;;4.70;;
71343;SDS011;59146;43.850;25.948;2023-03-26T05:42:28;6.80;;;4.40;;
71343;SDS011;59146;43.850;25.948;2023-03-26T05:44:53;6.05;;;4.45;;
71343;SDS011;59146;43.850;25.948;2023-03-26T05:47:19;6.47;;;4.22;;
71343;SDS011;59146;43.850;25.948;2023-03-26T05:49:44;6.40;;;4.05;;
71343;SDS011;59146;43.850;25.948;2023-03-26T05:52:10;5.07;;;4.15;;
71343;SDS011;59146;43.850;25.948;2023-03-26T05:54:39;5.53;;;3.65;;
71343;SDS011;59146;43.850;25.948;2023-03-26T05:57:05;4.55;;;3.72;;
71343;SDS011;59146;43.850;25.948;2023-03-26T05:59:30;7.47;;;3.63;;
71343;SDS011;59146;43.850;25.948;2023-03-26T06:01:56;8.60;;;4.00;;
71343;SDS011;59146;43.850;25.948;2023-03-26T06:04:21;4.78;;;4.13;;
71343;SDS011;59146;43.850;25.948;2023-03-26T06:06:47;5.43;;;3.45;;
71343;SDS011;59146;43.850;25.948;2023-03-26T06:09:12;5.10;;;3.47;;
71343;SDS011;59146;43.850;25.948;2023-03-26T06:11:38;9.10;;;3.90;;
71343;SDS011;59146;43.850;25.948;2023-03-26T06:14:05;6.95;;;3.70;;
71343;SDS011;59146;43.850;25.948;2023-03-26T06:16:31;7.88;;;3.97;;
71343;SDS011;59146;43.850;25.948;2023-03-26T06:18:57;7.63;;;3.60;;
71343;SDS011;59146;43.850;25.948;2023-03-26T06:21:26;9.30;;;3.60;;
71343;SDS011;59146;43.850;25.948;2023-03-26T06:23:52;6.15;;;3.53;;
71343;SDS011;59146;43.850;25.948;2023-03-26T06:26:19;4.72;;;3.15;;
71343;SDS011;59146;43.850;25.948;2023-03-26T06:28:45;5.88;;;2.92;;
71343;SDS011;59146;43.850;25.948;2023-03-26T06:31:10;8.20;;;3.42;;
71343;SDS011;59146;43.850;25.948;2023-03-26T06:33:36;5.97;;;3.78;;
71343;SDS011;59146;43.850;25.948;2023-03-26T06:36:01;10.98;;;2.83;;
71343;SDS011;59146;43.850;25.948;2023-03-26T06:38:27;5.97;;;3.35;;
71343;SDS011;59146;43.850;25.948;2023-03-26T06:40:52;4.22;;;2.90;;
71343;SDS011;59146;43.850;25.948;2023-03-26T06:43:18;5.00;;;2.80;;
71343;SDS011;59146;43.850;25.948;2023-03-26T06:45:44;7.82;;;2.92;;
71343;SDS011;59146;43.850;25.948;2023-03-26T06:48:13;5.30;;;2.97;;
71343;SDS011;59146;43.850;25.948;2023-03-26T06:50:39;4.13;;;2.83;;
71343;SDS011;59146;43.850;25.948;2023-03-26T06:53:04;5.20;;;2.70;;
71343;SDS011;59146;43.850;25.948;2023-03-26T06:55:30;5.00;;;2.70;;
71343;SDS011;59146;43.850;25.948;2023-03-26T06:57:55;4.20;;;3.00;;
71343;SDS011;59146;43.850;25.948;2023-03-26T07:00:22;6.45;;;3.63;;
71343;SDS011;59146;43.850;25.948;2023-03-26T07:02:48;4.40;;;2.85;;
71343;SDS011;59146;43.850;25.948;2023-03-26T07:05:13;9.52;;;2.88;;
71343;SDS011;59146;43.850;25.948;2023-03-26T07:07:39;3.28;;;2.38;;
71343;SDS011;59146;43.850;25.948;2023-03-26T07:10:05;4.63;;;2.20;;
71343;SDS011;59146;43.850;25.948;2023-03-26T07:12:31;7.07;;;2.30;;
71343;SDS011;59146;43.850;25.948;2023-03-26T07:14:56;4.03;;;2.47;;
71343;SDS011;59146;43.850;25.948;2023-03-26T07:17:25;4.05;;;2.20;;
71343;SDS011;59146;43.850;25.948;2023-03-26T07:19:51;5.50;;;2.40;;
71343;SDS011;59146;43.850;25.948;2023-03-26T07:22:21;7.07;;;2.80;;
71343;SDS011;59146;43.850;25.948;2023-03-26T07:24:48;7.75;;;2.28;;
71343;SDS011;59146;43.850;25.948;2023-03-26T07:29:54;2.85;;;1.80;;
71343;SDS011;59146;43.850;25.948;2023-03-26T07:32:27;7.25;;;2.08;;
71343;SDS011;59146;43.850;25.948;2023-03-26T07:35:03;4.25;;;2.60;;
71343;SDS011;59146;43.850;25.948;2023-03-26T07:46:07;8.25;;;1.92;;
71343;SDS011;59146;43.850;25.948;2023-03-26T07:48:39;3.95;;;1.83;;
71343;SDS011;59146;43.850;25.948;2023-03-26T07:51:07;4.65;;;2.38;;
71343;SDS011;59146;43.850;25.948;2023-03-26T07:53:33;2.50;;;1.85;;
71343;SDS011;59146;43.850;25.948;2023-03-26T07:58:51;4.65;;;2.33;;
71343;SDS011;59146;43.850;25.948;2023-03-26T08:07:23;4.70;;;2.03;;
71343;SDS011;59146;43.850;25.948;2023-03-26T08:12:44;7.82;;;3.05;;
71343;SDS011;59146;43.850;25.948;2023-03-26T08:22:52;6.10;;;2.53;;
71343;SDS011;59146;43.850;25.948;2023-03-26T08:25:49;3.42;;;1.60;;
71343;SDS011;59146;43.850;25.948;2023-03-26T08:28:34;4.25;;;1.95;;
71343;SDS011;59146;43.850;25.948;2023-03-26T08:31:26;3.75;;;1.83;;
71343;SDS011;59146;43.850;25.948;2023-03-26T08:33:59;6.97;;;2.38;;
71343;SDS011;59146;43.850;25.948;2023-03-26T08:36:25;5.50;;;1.75;;
71343;SDS011;59146;43.850;25.948;2023-03-26T08:38:51;4.65;;;1.88;;
71343;SDS011;59146;43.850;25.948;2023-03-26T08:41:21;5.15;;;1.60;;
71343;SDS011;59146;43.850;25.948;2023-03-26T08:46:51;3.88;;;1.80;;
71343;SDS011;59146;43.850;25.948;2023-03-26T09:11:58;6.57;;;1.65;;
71343;SDS011;59146;43.850;25.948;2023-03-26T09:14:34;5.13;;;2.00;;
71343;SDS011;59146;43.850;25.948;2023-03-26T09:17:14;3.33;;;1.63;;
71343;SDS011;59146;43.850;25.948;2023-03-26T09:25:42;4.07;;;1.75;;
71343;SDS011;59146;43.850;25.948;2023-03-26T09:34:38;5.35;;;1.30;;
71343;SDS011;59146;43.850;25.948;2023-03-26T09:37:17;7.18;;;1.45;;
71343;SDS011;59146;43.850;25.948;2023-03-26T09:40:18;12.30;;;1.30;;
71343;SDS011;59146;43.850;25.948;2023-03-26T09:49:04;5.75;;;1.83;;
71343;SDS011;59146;43.850;25.948;2023-03-26T10:06:04;4.47;;;1.80;;
71343;SDS011;59146;43.850;25.948;2023-03-26T10:09:02;5.05;;;1.35;;
71343;SDS011;59146;43.850;25.948;2023-03-26T10:11:44;4.03;;;1.52;;
71343;SDS011;59146;43.850;25.948;2023-03-26T10:14:39;7.13;;;1.85;;
71343;SDS011;59146;43.850;25.948;2023-03-26T10:17:19;32.30;;;3.95;;
71343;SDS011;59146;43.850;25.948;2023-03-26T10:19:58;2.05;;;1.20;;
71343;SDS011;59146;43.850;25.948;2023-03-26T10:22:58;3.38;;;1.63;;
71343;SDS011;59146;43.850;25.948;2023-03-26T10:28:25;1.83;;;1.50;;
71343;SDS011;59146;43.850;25.948;2023-03-26T10:31:15;4.57;;;1.85;;
71343;SDS011;59146;43.850;25.948;2023-03-26T10:37:20;5.43;;;1.80;;
71343;SDS011;59146;43.850;25.948;2023-03-26T10:42:22;4.97;;;1.90;;
71343;SDS011;59146;43.850;25.948;2023-03-26T10:50:51;6.18;;;2.03;;
71343;SDS011;59146;43.850;25.948;2023-03-26T10:53:33;5.38;;;2.10;;
71343;SDS011;59146;43.850;25.948;2023-03-26T10:58:56;8.48;;;1.98;;
71343;SDS011;59146;43.850;25.948;2023-03-26T11:07:16;4.28;;;1.38;;
71343;SDS011;59146;43.850;25.948;2023-03-26T11:10:08;6.85;;;1.42;;
71343;SDS011;59146;43.850;25.948;2023-03-26T11:12:46;3.00;;;1.20;;
71343;SDS011;59146;43.850;25.948;2023-03-26T11:15:23;1.65;;;1.33;;
71343;SDS011;59146;43.850;25.948;2023-03-26T11:20:47;6.80;;;2.05;;
71343;SDS011;59146;43.850;25.948;2023-03-26T11:33:57;7.72;;;1.60;;
71343;SDS011;59146;43.850;25.948;2023-03-26T11:36:32;2.00;;;1.50;;
71343;SDS011;59146;43.850;25.948;2023-03-26T11:39:05;4.68;;;1.67;;
71343;SDS011;59146;43.850;25.948;2023-03-26T11:41:38;7.88;;;1.48;;
71343;SDS011;59146;43.850;25.948;2023-03-26T11:44:20;3.88;;;1.40;;
71343;SDS011;59146;43.850;25.948;2023-03-26T11:46:49;5.38;;;1.35;;
71343;SDS011;59146;43.850;25.948;2023-03-26T11:49:22;5.85;;;1.50;;
71343;SDS011;59146;43.850;25.948;2023-03-26T11:51:51;2.40;;;1.55;;
71343;SDS011;59146;43.850;25.948;2023-03-26T11:54:16;5.55;;;1.63;;
71343;SDS011;59146;43.850;25.948;2023-03-26T11:56:49;3.15;;;1.63;;
71343;SDS011;59146;43.850;25.948;2023-03-26T11:59:28;4.22;;;1.85;;
71343;SDS011;59146;43.850;25.948;2023-03-26T12:02:43;3.83;;;1.40;;
71343;SDS011;59146;43.850;25.948;2023-03-26T12:04:49;4.20;;;1.40;;
71343;SDS011;59146;43.850;25.948;2023-03-26T12:07:32;3.78;;;1.15;;
71343;SDS011;59146;43.850;25.948;2023-03-26T12:09:59;4.38;;;2.00;;
71343;SDS011;59146;43.850;25.948;2023-03-26T12:12:37;3.78;;;1.50;;
71343;SDS011;59146;43.850;25.948;2023-03-26T12:15:12;6.80;;;1.85;;
71343;SDS011;59146;43.850;25.948;2023-03-26T12:17:39;2.75;;;1.42;;
71343;SDS011;59146;43.850;25.948;2023-03-26T12:22:50;2.17;;;1.40;;
71343;SDS011;59146;43.850;25.948;2023-03-26T12:25:50;4.38;;;1.65;;
71343;SDS011;59146;43.850;25.948;2023-03-26T12:30:38;2.25;;;1.40;;
71343;SDS011;59146;43.850;25.948;2023-03-26T12:33:06;3.53;;;1.20;;
71343;SDS011;59146;43.850;25.948;2023-03-26T12:35:42;3.03;;;1.20;;
71343;SDS011;59146;43.850;25.948;2023-03-26T12:38:15;3.08;;;1.85;;
71343;SDS011;59146;43.850;25.948;2023-03-26T12:40:40;1.88;;;1.45;;
71343;SDS011;59146;43.850;25.948;2023-03-26T12:43:28;5.97;;;1.40;;
71343;SDS011;59146;43.850;25.948;2023-03-26T12:45:56;2.35;;;1.35;;
71343;SDS011;59146;43.850;25.948;2023-03-26T12:48:23;5.60;;;1.30;;
71343;SDS011;59146;43.850;25.948;2023-03-26T13:11:51;8.68;;;1.27;;
71343;SDS011;59146;43.850;25.948;2023-03-26T13:14:29;4.28;;;1.25;;
71343;SDS011;59146;43.850;25.948;2023-03-26T13:20:00;6.70;;;1.60;;
71343;SDS011;59146;43.850;25.948;2023-03-26T13:22:48;2.22;;;1.20;;
71343;SDS011;59146;43.850;25.948;2023-03-26T13:25:40;2.28;;;1.25;;
71343;SDS011;59146;43.850;25.948;2023-03-26T13:41:46;2.65;;;1.20;;
71343;SDS011;59146;43.850;25.948;2023-03-26T13:47:07;5.30;;;1.30;;
71343;SDS011;59146;43.850;25.948;2023-03-26T13:49:40;3.28;;;1.20;;
71343;SDS011;59146;43.850;25.948;2023-03-26T13:52:20;1.17;;;1.08;;
71343;SDS011;59146;43.850;25.948;2023-03-26T13:57:37;1.45;;;1.10;;
71343;SDS011;59146;43.850;25.948;2023-03-26T14:00:15;4.80;;;1.20;;
71343;SDS011;59146;43.850;25.948;2023-03-26T14:02:47;1.38;;;0.90;;
71343;SDS011;59146;43.850;25.948;2023-03-26T14:07:52;8.05;;;2.40;;
71343;SDS011;59146;43.850;25.948;2023-03-26T14:10:25;4.28;;;1.25;;
71343;SDS011;59146;43.850;25.948;2023-03-26T14:15:35;2.47;;;1.08;;
71343;SDS011;59146;43.850;25.948;2023-03-26T14:26:14;2.28;;;0.93;;
71343;SDS011;59146;43.850;25.948;2023-03-26T14:52:12;2.85;;;0.80;;
71343;SDS011;59146;43.850;25.948;2023-03-26T14:54:44;5.40;;;1.43;;
71343;SDS011;59146;43.850;25.948;2023-03-26T15:11:25;4.18;;;0.75;;
71343;SDS011;59146;43.850;25.948;2023-03-26T15:13:59;4.45;;;0.95;;
71343;SDS011;59146;43.850;25.948;2023-03-26T15:19:27;8.13;;;1.27;;
71343;SDS011;59146;43.850;25.948;2023-03-26T15:27:48;3.05;;;1.48;;
71343;SDS011;59146;43.850;25.948;2023-03-26T15:30:27;5.60;;;2.72;;
71343;SDS011;59146;43.850;25.948;2023-03-26T15:36:09;3.17;;;1.88;;
71343;SDS011;59146;43.850;25.948;2023-03-26T15:38:54;3.75;;;1.98;;
71343;SDS011;59146;43.850;25.948;2023-03-26T15:55:25;4.05;;;1.67;;
71343;SDS011;59146;43.850;25.948;2023-03-26T15:58:12;3.50;;;1.77;;
71343;SDS011;59146;43.850;25.948;2023-03-26T16:03:25;1.83;;;1.65;;
71343;SDS011;59146;43.850;25.948;2023-03-26T16:11:52;2.83;;;1.48;;
71343;SDS011;59146;43.850;25.948;2023-03-26T16:14:22;4.50;;;1.30;;
71343;SDS011;59146;43.850;25.948;2023-03-26T16:17:01;4.03;;;2.47;;
71343;SDS011;59146;43.850;25.948;2023-03-26T16:19:32;3.03;;;1.90;;
71343;SDS011;59146;43.850;25.948;2023-03-26T16:22:06;3.75;;;1.60;;
71343;SDS011;59146;43.850;25.948;2023-03-26T16:24:42;1.50;;;1.20;;
71343;SDS011;59146;43.850;25.948;2023-03-26T16:32:46;2.30;;;1.30;;
71343;SDS011;59146;43.850;25.948;2023-03-26T16:38:27;2.47;;;1.15;;
71343;SDS011;59146;43.850;25.948;2023-03-26T16:40:59;4.07;;;2.55;;
71343;SDS011;59146;43.850;25.948;2023-03-26T16:54:13;2.78;;;1.15;;
71343;SDS011;59146;43.850;25.948;2023-03-26T16:56:47;3.35;;;1.90;;
71343;SDS011;59146;43.850;25.948;2023-03-26T17:04:57;6.60;;;1.75;;
71343;SDS011;59146;43.850;25.948;2023-03-26T17:10:21;2.33;;;1.80;;
71343;SDS011;59146;43.850;25.948;2023-03-26T17:13:06;3.53;;;2.33;;
71343;SDS011;59146;43.850;25.948;2023-03-26T17:29:27;9.00;;;2.50;;
71343;SDS011;59146;43.850;25.948;2023-03-26T17:37:10;6.82;;;2.05;;
71343;SDS011;59146;43.850;25.948;2023-03-26T17:42:35;4.15;;;2.60;;
71343;SDS011;59146;43.850;25.948;2023-03-26T17:45:14;6.88;;;2.35;;
71343;SDS011;59146;43.850;25.948;2023-03-26T17:47:47;5.75;;;3.58;;
71343;SDS011;59146;43.850;25.948;2023-03-26T17:52:52;6.22;;;2.25;;
71343;SDS011;59146;43.850;25.948;2023-03-26T17:55:29;5.38;;;1.85;;
71343;SDS011;59146;43.850;25.948;2023-03-26T17:58:00;5.50;;;2.30;;
71343;SDS011;59146;43.850;25.948;2023-03-26T18:02:59;4.90;;;2.00;;
71343;SDS011;59146;43.850;25.948;2023-03-26T18:05:30;3.58;;;1.75;;
71343;SDS011;59146;43.850;25.948;2023-03-26T18:13:35;9.00;;;2.58;;
71343;SDS011;59146;43.850;25.948;2023-03-26T18:21:03;9.65;;;2.72;;
71343;SDS011;59146;43.850;25.948;2023-03-26T18:28:40;6.55;;;2.25;;
71343;SDS011;59146;43.850;25.948;2023-03-26T18:31:17;7.57;;;2.13;;
71343;SDS011;59146;43.850;25.948;2023-03-26T18:33:47;4.85;;;1.80;;
71343;SDS011;59146;43.850;25.948;2023-03-26T18:36:14;3.28;;;1.65;;
71343;SDS011;59146;43.850;25.948;2023-03-26T18:38:42;3.10;;;1.73;;
71343;SDS011;59146;43.850;25.948;2023-03-26T18:41:14;5.20;;;1.88;;
71343;SDS011;59146;43.850;25.948;2023-03-26T18:43:46;6.85;;;2.10;;
71343;SDS011;59146;43.850;25.948;2023-03-26T18:46:12;3.00;;;1.33;;
71343;SDS011;59146;43.850;25.948;2023-03-26T18:48:38;3.53;;;1.75;;
71343;SDS011;59146;43.850;25.948;2023-03-26T18:51:04;5.97;;;1.38;;
71343;SDS011;59146;43.850;25.948;2023-03-26T18:53:34;3.10;;;1.33;;
71343;SDS011;59146;43.850;25.948;2023-03-26T18:56:16;2.70;;;1.90;;
71343;SDS011;59146;43.850;25.948;2023-03-26T18:59:03;1.88;;;1.35;;
71343;SDS011;59146;43.850;25.948;2023-03-26T19:01:33;2.42;;;2.00;;
71343;SDS011;59146;43.850;25.948;2023-03-26T19:04:01;3.30;;;2.00;;
71343;SDS011;59146;43.850;25.948;2023-03-26T19:06:30;4.25;;;2.00;;
71343;SDS011;59146;43.850;25.948;2023-03-26T19:09:03;3.10;;;1.95;;
71343;SDS011;59146;43.850;25.948;2023-03-26T19:11:37;6.43;;;1.55;;
71343;SDS011;59146;43.850;25.948;2023-03-26T19:14:14;8.95;;;5.00;;
71343;SDS011;59146;43.850;25.948;2023-03-26T19:16:42;3.67;;;2.40;;
71343;SDS011;59146;43.850;25.948;2023-03-26T19:19:24;4.25;;;2.85;;
71343;SDS011;59146;43.850;25.948;2023-03-26T19:21:54;3.58;;;1.80;;
71343;SDS011;59146;43.850;25.948;2023-03-26T19:24:20;6.70;;;3.90;;
71343;SDS011;59146;43.850;25.948;2023-03-26T19:26:46;5.18;;;2.33;;
71343;SDS011;59146;43.850;25.948;2023-03-26T19:29:13;2.97;;;1.58;;
71343;SDS011;59146;43.850;25.948;2023-03-26T19:31:41;4.68;;;2.08;;
71343;SDS011;59146;43.850;25.948;2023-03-26T19:36:35;2.22;;;1.50;;
71343;SDS011;59146;43.850;25.948;2023-03-26T19:42:01;6.75;;;3.55;;
71343;SDS011;59146;43.850;25.948;2023-03-26T19:44:30;6.45;;;5.10;;
71343;SDS011;59146;43.850;25.948;2023-03-26T19:47:07;4.35;;;2.63;;
71343;SDS011;59146;43.850;25.948;2023-03-26T19:49:46;5.25;;;1.90;;
71343;SDS011;59146;43.850;25.948;2023-03-26T19:54:49;2.75;;;1.60;;
71343;SDS011;59146;43.850;25.948;2023-03-26T19:57:28;7.47;;;3.70;;
71343;SDS011;59146;43.850;25.948;2023-03-26T19:59:54;5.78;;;2.03;;
71343;SDS011;59146;43.850;25.948;2023-03-26T20:02:20;3.83;;;2.70;;
71343;SDS011;59146;43.850;25.948;2023-03-26T20:04:46;12.27;;;4.47;;
71343;SDS011;59146;43.850;25.948;2023-03-26T20:07:18;4.63;;;2.20;;
71343;SDS011;59146;43.850;25.948;2023-03-26T20:09:46;5.82;;;2.33;;
71343;SDS011;59146;43.850;25.948;2023-03-26T20:12:13;3.67;;;2.25;;
71343;SDS011;59146;43.850;25.948;2023-03-26T20:14:39;5.95;;;2.40;;
71343;SDS011;59146;43.850;25.948;2023-03-26T20:17:17;4.35;;;2.17;;
71343;SDS011;59146;43.850;25.948;2023-03-26T20:19:45;3.22;;;2.20;;
71343;SDS011;59146;43.850;25.948;2023-03-26T20:22:12;6.28;;;2.05;;
71343;SDS011;59146;43.850;25.948;2023-03-26T20:24:39;4.15;;;2.22;;
71343;SDS011;59146;43.850;25.948;2023-03-26T20:27:05;5.78;;;2.42;;
71343;SDS011;59146;43.850;25.948;2023-03-26T20:29:31;8.60;;;2.58;;
71343;SDS011;59146;43.850;25.948;2023-03-26T20:31:56;9.45;;;2.55;;
71343;SDS011;59146;43.850;25.948;2023-03-26T20:34:22;3.70;;;2.10;;
71343;SDS011;59146;43.850;25.948;2023-03-26T20:36:49;3.17;;;2.05;;
71343;SDS011;59146;43.850;25.948;2023-03-26T20:39:21;4.13;;;2.28;;
71343;SDS011;59146;43.850;25.948;2023-03-26T20:41:49;4.25;;;2.75;;
71343;SDS011;59146;43.850;25.948;2023-03-26T20:44:17;7.00;;;2.30;;
71343;SDS011;59146;43.850;25.948;2023-03-26T20:46:45;2.60;;;2.00;;
71343;SDS011;59146;43.850;25.948;2023-03-26T20:49:13;4.22;;;2.67;;